sensor_id;sensor_type;location;lat;lon;timestamp;temperature;humidity
318;DHT22;146;53.448;10.228;2022-12-07T00:01:22;3.70;1.00
318;DHT22;146;53.448;10.228;2022-12-07T00:03:52;3.70;1.00
318;DHT22;146;53.448;10.228;2022-12-07T00:06:19;3.80;1.00
318;DHT22;146;53.448;10.228;2022-12-07T00:08:47;3.80;1.00
318;DHT22;146;53.448;10.228;2022-12-07T00:11:16;3.80;1.00
318;DHT22;146;53.448;10.228;2022-12-07T00:13:45;3.70;1.00
318;DHT22;146;53.448;10.228;2022-12-07T00:16:14;3.80;1.00
318;DHT22;146;53.448;10.228;2022-12-07T00:18:41;3.70;1.20
318;DHT22;146;53.448;10.228;2022-12-07T00:21:10;3.80;1.60
318;DHT22;146;53.448;10.228;2022-12-07T00:23:38;3.80;1.90
318;DHT22;146;53.448;10.228;2022-12-07T00:26:06;3.90;2.00
318;DHT22;146;53.448;10.228;2022-12-07T00:28:33;3.90;2.20
318;DHT22;146;53.448;10.228;2022-12-07T00:31:03;4.00;2.20
318;DHT22;146;53.448;10.228;2022-12-07T00:33:31;4.10;2.30
318;DHT22;146;53.448;10.228;2022-12-07T00:35:59;4.10;2.40
318;DHT22;146;53.448;10.228;2022-12-07T00:38:27;4.20;2.40
318;DHT22;146;53.448;10.228;2022-12-07T00:40:56;4.30;2.40
318;DHT22;146;53.448;10.228;2022-12-07T00:43:23;4.30;2.00
318;DHT22;146;53.448;10.228;2022-12-07T00:45:50;4.30;1.90
318;DHT22;146;53.448;10.228;2022-12-07T00:48:18;4.30;1.60
318;DHT22;146;53.448;10.228;2022-12-07T00:50:45;4.30;1.60
318;DHT22;146;53.448;10.228;2022-12-07T00:53:12;4.20;1.40
318;DHT22;146;53.448;10.228;2022-12-07T00:55:39;4.30;1.40
318;DHT22;146;53.448;10.228;2022-12-07T00:58:06;4.30;1.40
318;DHT22;146;53.448;10.228;2022-12-07T01:00:33;4.40;1.10
318;DHT22;146;53.448;10.228;2022-12-07T01:03:01;4.30;1.00
318;DHT22;146;53.448;10.228;2022-12-07T01:05:29;4.30;1.00
318;DHT22;146;53.448;10.228;2022-12-07T01:07:56;4.30;1.00
318;DHT22;146;53.448;10.228;2022-12-07T01:10:23;4.30;1.00
318;DHT22;146;53.448;10.228;2022-12-07T01:12:50;4.30;1.00
318;DHT22;146;53.448;10.228;2022-12-07T01:15:17;4.20;1.00
318;DHT22;146;53.448;10.228;2022-12-07T01:17:44;4.20;1.00
318;DHT22;146;53.448;10.228;2022-12-07T01:20:12;4.30;1.00
318;DHT22;146;53.448;10.228;2022-12-07T01:22:41;4.30;1.00
318;DHT22;146;53.448;10.228;2022-12-07T01:25:09;4.30;1.00
318;DHT22;146;53.448;10.228;2022-12-07T01:27:37;4.20;1.00
318;DHT22;146;53.448;10.228;2022-12-07T01:30:07;4.30;1.00
318;DHT22;146;53.448;10.228;2022-12-07T01:32:34;4.20;1.00
318;DHT22;146;53.448;10.228;2022-12-07T01:35:01;4.20;1.00
318;DHT22;146;53.448;10.228;2022-12-07T01:37:27;4.20;1.00
318;DHT22;146;53.448;10.228;2022-12-07T01:39:55;4.20;1.00
318;DHT22;146;53.448;10.228;2022-12-07T01:42:22;4.10;1.00
318;DHT22;146;53.448;10.228;2022-12-07T01:48:05;4.10;1.40
318;DHT22;146;53.448;10.228;2022-12-07T01:50:33;4.10;1.70
318;DHT22;146;53.448;10.228;2022-12-07T01:53:03;4.10;1.80
318;DHT22;146;53.448;10.228;2022-12-07T01:55:33;4.10;1.70
318;DHT22;146;53.448;10.228;2022-12-07T01:58:01;4.00;1.70
318;DHT22;146;53.448;10.228;2022-12-07T02:00:28;4.10;2.00
318;DHT22;146;53.448;10.228;2022-12-07T02:02:59;4.00;2.30
318;DHT22;146;53.448;10.228;2022-12-07T02:05:26;4.00;2.60
318;DHT22;146;53.448;10.228;2022-12-07T02:07:56;4.10;2.90
318;DHT22;146;53.448;10.228;2022-12-07T02:10:25;4.00;2.60
318;DHT22;146;53.448;10.228;2022-12-07T02:12:56;4.00;2.80
318;DHT22;146;53.448;10.228;2022-12-07T02:15:34;4.00;2.80
318;DHT22;146;53.448;10.228;2022-12-07T02:18:09;4.10;2.80
318;DHT22;146;53.448;10.228;2022-12-07T02:20:44;4.00;2.90
318;DHT22;146;53.448;10.228;2022-12-07T02:23:38;4.00;3.10
318;DHT22;146;53.448;10.228;2022-12-07T02:26:32;4.00;3.50
318;DHT22;146;53.448;10.228;2022-12-07T02:29:13;4.00;3.50
318;DHT22;146;53.448;10.228;2022-12-07T02:31:45;4.00;3.20
318;DHT22;146;53.448;10.228;2022-12-07T02:34:20;3.90;2.90
318;DHT22;146;53.448;10.228;2022-12-07T02:36:54;3.90;2.90
318;DHT22;146;53.448;10.228;2022-12-07T02:39:26;3.80;2.70
318;DHT22;146;53.448;10.228;2022-12-07T02:41:59;3.70;2.50
318;DHT22;146;53.448;10.228;2022-12-07T02:44:30;3.70;2.60
318;DHT22;146;53.448;10.228;2022-12-07T02:47:01;3.70;2.50
318;DHT22;146;53.448;10.228;2022-12-07T02:49:29;3.60;2.50
318;DHT22;146;53.448;10.228;2022-12-07T02:51:56;3.50;2.60
318;DHT22;146;53.448;10.228;2022-12-07T02:54:23;3.50;2.90
318;DHT22;146;53.448;10.228;2022-12-07T02:56:55;3.50;3.10
318;DHT22;146;53.448;10.228;2022-12-07T02:59:34;3.40;3.10
318;DHT22;146;53.448;10.228;2022-12-07T03:02:14;3.40;3.40
318;DHT22;146;53.448;10.228;2022-12-07T03:04:46;3.30;3.30
318;DHT22;146;53.448;10.228;2022-12-07T03:07:24;3.30;3.40
318;DHT22;146;53.448;10.228;2022-12-07T03:09:59;3.20;3.40
318;DHT22;146;53.448;10.228;2022-12-07T03:12:31;3.20;3.50
318;DHT22;146;53.448;10.228;2022-12-07T03:15:07;3.30;3.90
318;DHT22;146;53.448;10.228;2022-12-07T03:17:37;3.30;3.90
318;DHT22;146;53.448;10.228;2022-12-07T03:20:09;3.20;3.80
318;DHT22;146;53.448;10.228;2022-12-07T03:22:39;3.20;3.80
318;DHT22;146;53.448;10.228;2022-12-07T03:25:10;3.30;3.80
318;DHT22;146;53.448;10.228;2022-12-07T03:27:41;3.30;3.60
318;DHT22;146;53.448;10.228;2022-12-07T03:30:14;3.30;3.40
318;DHT22;146;53.448;10.228;2022-12-07T03:32:44;3.30;3.20
318;DHT22;146;53.448;10.228;2022-12-07T03:35:15;3.20;2.90
318;DHT22;146;53.448;10.228;2022-12-07T03:37:47;3.20;2.90
318;DHT22;146;53.448;10.228;2022-12-07T03:40:19;3.30;2.80
318;DHT22;146;53.448;10.228;2022-12-07T03:42:50;3.20;2.60
318;DHT22;146;53.448;10.228;2022-12-07T03:45:23;3.20;2.40
318;DHT22;146;53.448;10.228;2022-12-07T03:48:01;3.10;2.40
318;DHT22;146;53.448;10.228;2022-12-07T03:50:34;3.10;2.40
318;DHT22;146;53.448;10.228;2022-12-07T03:53:08;3.10;2.50
318;DHT22;146;53.448;10.228;2022-12-07T03:55:40;3.10;2.50
318;DHT22;146;53.448;10.228;2022-12-07T03:58:11;3.00;2.30
318;DHT22;146;53.448;10.228;2022-12-07T04:00:41;3.00;2.30
318;DHT22;146;53.448;10.228;2022-12-07T04:03:08;3.00;2.00
318;DHT22;146;53.448;10.228;2022-12-07T04:05:35;3.00;1.90
318;DHT22;146;53.448;10.228;2022-12-07T04:08:02;2.90;1.70
318;DHT22;146;53.448;10.228;2022-12-07T04:10:29;2.90;1.60
318;DHT22;146;53.448;10.228;2022-12-07T04:12:56;2.90;1.70
318;DHT22;146;53.448;10.228;2022-12-07T04:15:23;2.80;1.70
318;DHT22;146;53.448;10.228;2022-12-07T04:17:51;2.80;2.00
318;DHT22;146;53.448;10.228;2022-12-07T04:20:19;2.80;2.10
318;DHT22;146;53.448;10.228;2022-12-07T04:22:46;2.70;2.30
318;DHT22;146;53.448;10.228;2022-12-07T04:25:13;2.70;2.60
318;DHT22;146;53.448;10.228;2022-12-07T04:27:40;2.70;2.50
318;DHT22;146;53.448;10.228;2022-12-07T04:30:07;2.70;2.40
318;DHT22;146;53.448;10.228;2022-12-07T04:32:34;2.60;2.30
318;DHT22;146;53.448;10.228;2022-12-07T04:35:04;2.70;2.40
318;DHT22;146;53.448;10.228;2022-12-07T04:37:31;2.60;2.30
318;DHT22;146;53.448;10.228;2022-12-07T04:39:58;2.60;2.50
318;DHT22;146;53.448;10.228;2022-12-07T04:42:25;2.60;2.60
318;DHT22;146;53.448;10.228;2022-12-07T04:44:52;2.60;2.60
318;DHT22;146;53.448;10.228;2022-12-07T04:47:19;2.60;2.40
318;DHT22;146;53.448;10.228;2022-12-07T04:49:45;2.70;2.40
318;DHT22;146;53.448;10.228;2022-12-07T04:52:14;2.60;2.30
318;DHT22;146;53.448;10.228;2022-12-07T04:54:40;2.60;2.10
318;DHT22;146;53.448;10.228;2022-12-07T04:57:07;2.60;2.00
318;DHT22;146;53.448;10.228;2022-12-07T04:59:34;2.60;1.90
318;DHT22;146;53.448;10.228;2022-12-07T05:02:01;2.50;1.80
318;DHT22;146;53.448;10.228;2022-12-07T05:04:28;2.50;1.60
318;DHT22;146;53.448;10.228;2022-12-07T05:06:54;2.50;1.50
318;DHT22;146;53.448;10.228;2022-12-07T05:09:23;2.50;1.40
318;DHT22;146;53.448;10.228;2022-12-07T05:11:49;2.50;1.30
318;DHT22;146;53.448;10.228;2022-12-07T05:14:18;2.50;1.20
318;DHT22;146;53.448;10.228;2022-12-07T05:16:46;2.40;1.00
318;DHT22;146;53.448;10.228;2022-12-07T05:19:15;2.40;1.00
318;DHT22;146;53.448;10.228;2022-12-07T05:21:42;2.40;1.00
318;DHT22;146;53.448;10.228;2022-12-07T05:24:11;2.30;1.00
318;DHT22;146;53.448;10.228;2022-12-07T05:26:40;2.30;1.00
318;DHT22;146;53.448;10.228;2022-12-07T05:29:07;2.30;1.00
318;DHT22;146;53.448;10.228;2022-12-07T05:31:36;2.30;1.00
318;DHT22;146;53.448;10.228;2022-12-07T05:34:03;2.30;1.00
318;DHT22;146;53.448;10.228;2022-12-07T05:36:30;2.30;1.00
318;DHT22;146;53.448;10.228;2022-12-07T05:38:57;2.30;1.00
318;DHT22;146;53.448;10.228;2022-12-07T05:41:24;2.20;1.00
318;DHT22;146;53.448;10.228;2022-12-07T05:44:10;2.20;1.00
318;DHT22;146;53.448;10.228;2022-12-07T05:46:36;2.10;1.00
318;DHT22;146;53.448;10.228;2022-12-07T05:49:03;2.20;1.00
318;DHT22;146;53.448;10.228;2022-12-07T05:51:30;2.20;1.00
318;DHT22;146;53.448;10.228;2022-12-07T05:53:57;2.20;1.00
318;DHT22;146;53.448;10.228;2022-12-07T05:56:24;2.20;1.00
318;DHT22;146;53.448;10.228;2022-12-07T05:58:52;2.10;1.00
318;DHT22;146;53.448;10.228;2022-12-07T06:01:43;2.20;1.00
318;DHT22;146;53.448;10.228;2022-12-07T06:04:09;2.20;1.00
318;DHT22;146;53.448;10.228;2022-12-07T06:06:36;2.20;1.00
318;DHT22;146;53.448;10.228;2022-12-07T06:09:04;2.30;1.00
318;DHT22;146;53.448;10.228;2022-12-07T06:11:31;2.40;1.00
318;DHT22;146;53.448;10.228;2022-12-07T06:14:15;2.40;1.00
318;DHT22;146;53.448;10.228;2022-12-07T06:16:43;2.40;1.00
318;DHT22;146;53.448;10.228;2022-12-07T06:19:10;2.40;1.00
318;DHT22;146;53.448;10.228;2022-12-07T06:21:37;2.40;1.00
318;DHT22;146;53.448;10.228;2022-12-07T06:24:05;2.30;1.00
318;DHT22;146;53.448;10.228;2022-12-07T06:26:32;2.30;1.00
318;DHT22;146;53.448;10.228;2022-12-07T06:28:58;2.30;1.00
318;DHT22;146;53.448;10.228;2022-12-07T06:31:25;2.30;1.00
318;DHT22;146;53.448;10.228;2022-12-07T06:33:58;2.30;1.00
318;DHT22;146;53.448;10.228;2022-12-07T06:36:25;2.30;1.00
318;DHT22;146;53.448;10.228;2022-12-07T06:38:52;2.40;1.00
318;DHT22;146;53.448;10.228;2022-12-07T06:41:19;2.40;1.00
318;DHT22;146;53.448;10.228;2022-12-07T06:43:46;2.30;1.00
318;DHT22;146;53.448;10.228;2022-12-07T06:46:13;2.30;1.00
318;DHT22;146;53.448;10.228;2022-12-07T06:48:40;2.30;1.00
318;DHT22;146;53.448;10.228;2022-12-07T06:51:09;2.30;1.00
318;DHT22;146;53.448;10.228;2022-12-07T06:53:36;2.30;1.00
318;DHT22;146;53.448;10.228;2022-12-07T06:56:04;2.30;1.00
318;DHT22;146;53.448;10.228;2022-12-07T06:58:31;2.30;1.00
318;DHT22;146;53.448;10.228;2022-12-07T07:00:58;2.30;1.00
318;DHT22;146;53.448;10.228;2022-12-07T07:03:25;2.30;1.00
318;DHT22;146;53.448;10.228;2022-12-07T07:05:51;2.30;1.00
318;DHT22;146;53.448;10.228;2022-12-07T07:08:20;2.30;1.00
318;DHT22;146;53.448;10.228;2022-12-07T07:10:47;2.30;1.00
318;DHT22;146;53.448;10.228;2022-12-07T07:13:13;2.20;1.00
318;DHT22;146;53.448;10.228;2022-12-07T07:15:40;2.30;1.00
318;DHT22;146;53.448;10.228;2022-12-07T07:18:07;2.20;1.00
318;DHT22;146;53.448;10.228;2022-12-07T07:20:34;2.20;1.00
318;DHT22;146;53.448;10.228;2022-12-07T07:23:01;2.20;1.00
318;DHT22;146;53.448;10.228;2022-12-07T07:25:30;2.20;1.00
318;DHT22;146;53.448;10.228;2022-12-07T07:27:57;2.20;1.00
318;DHT22;146;53.448;10.228;2022-12-07T07:30:24;2.20;1.00
318;DHT22;146;53.448;10.228;2022-12-07T07:32:51;2.30;1.00
318;DHT22;146;53.448;10.228;2022-12-07T07:35:22;2.30;1.00
318;DHT22;146;53.448;10.228;2022-12-07T07:37:49;2.30;1.00
318;DHT22;146;53.448;10.228;2022-12-07T07:40:16;2.40;1.00
318;DHT22;146;53.448;10.228;2022-12-07T07:42:46;2.40;1.00
318;DHT22;146;53.448;10.228;2022-12-07T07:45:13;2.50;1.00
318;DHT22;146;53.448;10.228;2022-12-07T07:47:40;2.40;1.00
318;DHT22;146;53.448;10.228;2022-12-07T07:50:07;2.40;1.00
318;DHT22;146;53.448;10.228;2022-12-07T07:52:34;2.40;1.00
318;DHT22;146;53.448;10.228;2022-12-07T07:55:01;2.40;1.00
318;DHT22;146;53.448;10.228;2022-12-07T07:57:28;2.40;1.00
318;DHT22;146;53.448;10.228;2022-12-07T07:59:56;2.40;1.00
318;DHT22;146;53.448;10.228;2022-12-07T08:02:23;2.40;1.00
318;DHT22;146;53.448;10.228;2022-12-07T08:04:50;2.40;1.00
318;DHT22;146;53.448;10.228;2022-12-07T08:07:16;2.50;1.00
318;DHT22;146;53.448;10.228;2022-12-07T08:09:43;2.40;1.00
318;DHT22;146;53.448;10.228;2022-12-07T08:12:10;2.50;1.00
318;DHT22;146;53.448;10.228;2022-12-07T08:14:37;2.60;1.00
318;DHT22;146;53.448;10.228;2022-12-07T08:17:05;2.60;1.00
318;DHT22;146;53.448;10.228;2022-12-07T08:19:32;2.70;1.00
318;DHT22;146;53.448;10.228;2022-12-07T08:22:00;2.70;1.00
318;DHT22;146;53.448;10.228;2022-12-07T08:24:27;2.70;1.00
318;DHT22;146;53.448;10.228;2022-12-07T08:26:53;2.80;1.00
318;DHT22;146;53.448;10.228;2022-12-07T08:29:20;2.80;1.00
318;DHT22;146;53.448;10.228;2022-12-07T08:31:47;2.90;1.00
318;DHT22;146;53.448;10.228;2022-12-07T08:34:16;2.90;1.00
318;DHT22;146;53.448;10.228;2022-12-07T08:36:42;2.90;1.00
318;DHT22;146;53.448;10.228;2022-12-07T08:39:09;3.00;1.00
318;DHT22;146;53.448;10.228;2022-12-07T08:41:36;3.10;1.00
318;DHT22;146;53.448;10.228;2022-12-07T08:44:03;3.10;1.00
318;DHT22;146;53.448;10.228;2022-12-07T08:46:33;3.10;1.00
318;DHT22;146;53.448;10.228;2022-12-07T08:49:05;3.20;1.00
318;DHT22;146;53.448;10.228;2022-12-07T08:51:35;3.20;1.00
318;DHT22;146;53.448;10.228;2022-12-07T08:54:04;3.20;1.00
318;DHT22;146;53.448;10.228;2022-12-07T08:56:31;3.20;1.00
318;DHT22;146;53.448;10.228;2022-12-07T08:58:58;3.30;1.00
318;DHT22;146;53.448;10.228;2022-12-07T09:01:25;3.30;1.00
318;DHT22;146;53.448;10.228;2022-12-07T09:03:52;3.30;1.00
318;DHT22;146;53.448;10.228;2022-12-07T09:06:19;3.30;1.00
318;DHT22;146;53.448;10.228;2022-12-07T09:08:50;3.40;1.00
318;DHT22;146;53.448;10.228;2022-12-07T09:11:17;3.40;1.00
318;DHT22;146;53.448;10.228;2022-12-07T09:13:44;3.40;1.00
318;DHT22;146;53.448;10.228;2022-12-07T09:16:11;3.50;1.00
318;DHT22;146;53.448;10.228;2022-12-07T09:18:38;3.50;1.00
318;DHT22;146;53.448;10.228;2022-12-07T09:21:05;3.50;1.00
318;DHT22;146;53.448;10.228;2022-12-07T09:23:32;3.60;1.00
318;DHT22;146;53.448;10.228;2022-12-07T09:26:00;3.70;1.00
318;DHT22;146;53.448;10.228;2022-12-07T09:28:28;3.80;1.00
318;DHT22;146;53.448;10.228;2022-12-07T09:30:54;3.80;1.00
318;DHT22;146;53.448;10.228;2022-12-07T09:33:21;3.90;1.00
318;DHT22;146;53.448;10.228;2022-12-07T09:35:49;3.90;1.00
318;DHT22;146;53.448;10.228;2022-12-07T09:38:17;4.00;1.00
318;DHT22;146;53.448;10.228;2022-12-07T09:40:45;4.10;1.00
318;DHT22;146;53.448;10.228;2022-12-07T09:43:15;4.10;1.00
318;DHT22;146;53.448;10.228;2022-12-07T09:45:43;4.20;1.00
318;DHT22;146;53.448;10.228;2022-12-07T09:48:17;4.30;1.00
318;DHT22;146;53.448;10.228;2022-12-07T09:50:45;4.30;1.00
318;DHT22;146;53.448;10.228;2022-12-07T09:53:15;4.30;1.00
318;DHT22;146;53.448;10.228;2022-12-07T09:55:46;4.40;1.00
318;DHT22;146;53.448;10.228;2022-12-07T09:58:19;4.40;1.00
318;DHT22;146;53.448;10.228;2022-12-07T10:00:47;4.30;1.00
318;DHT22;146;53.448;10.228;2022-12-07T10:03:14;4.40;1.00
318;DHT22;146;53.448;10.228;2022-12-07T10:05:45;4.50;1.00
318;DHT22;146;53.448;10.228;2022-12-07T10:08:13;4.50;1.00
318;DHT22;146;53.448;10.228;2022-12-07T10:10:41;4.50;1.00
318;DHT22;146;53.448;10.228;2022-12-07T10:13:09;4.50;1.00
318;DHT22;146;53.448;10.228;2022-12-07T10:15:44;4.50;1.00
318;DHT22;146;53.448;10.228;2022-12-07T10:18:29;4.50;1.00
318;DHT22;146;53.448;10.228;2022-12-07T10:21:11;4.60;1.00
318;DHT22;146;53.448;10.228;2022-12-07T10:23:40;4.50;1.00
318;DHT22;146;53.448;10.228;2022-12-07T10:26:24;4.50;1.00
318;DHT22;146;53.448;10.228;2022-12-07T10:28:53;4.50;1.00
318;DHT22;146;53.448;10.228;2022-12-07T10:31:22;4.50;1.00
318;DHT22;146;53.448;10.228;2022-12-07T10:33:51;4.50;1.00
318;DHT22;146;53.448;10.228;2022-12-07T10:36:22;4.60;1.00
318;DHT22;146;53.448;10.228;2022-12-07T10:38:50;4.60;1.00
318;DHT22;146;53.448;10.228;2022-12-07T10:41:18;4.50;1.00
318;DHT22;146;53.448;10.228;2022-12-07T10:43:47;4.70;1.00
318;DHT22;146;53.448;10.228;2022-12-07T10:52:33;4.60;1.00
318;DHT22;146;53.448;10.228;2022-12-07T10:55:11;4.70;1.00
318;DHT22;146;53.448;10.228;2022-12-07T10:57:51;4.70;1.00
318;DHT22;146;53.448;10.228;2022-12-07T11:00:22;4.80;1.00
318;DHT22;146;53.448;10.228;2022-12-07T11:05:58;4.70;1.00
318;DHT22;146;53.448;10.228;2022-12-07T11:08:39;4.80;1.00
318;DHT22;146;53.448;10.228;2022-12-07T11:11:14;4.80;1.00
318;DHT22;146;53.448;10.228;2022-12-07T11:13:48;4.80;1.00
318;DHT22;146;53.448;10.228;2022-12-07T11:16:25;4.80;1.00
318;DHT22;146;53.448;10.228;2022-12-07T11:19:09;4.80;1.00
318;DHT22;146;53.448;10.228;2022-12-07T11:21:47;4.80;1.00
318;DHT22;146;53.448;10.228;2022-12-07T11:24:17;4.90;1.00
318;DHT22;146;53.448;10.228;2022-12-07T11:26:57;4.80;1.00
318;DHT22;146;53.448;10.228;2022-12-07T11:29:40;4.80;1.00
318;DHT22;146;53.448;10.228;2022-12-07T11:32:17;4.80;1.00
318;DHT22;146;53.448;10.228;2022-12-07T11:34:55;4.80;1.00
318;DHT22;146;53.448;10.228;2022-12-07T11:37:28;4.70;1.00
318;DHT22;146;53.448;10.228;2022-12-07T11:40:00;4.60;1.00
318;DHT22;146;53.448;10.228;2022-12-07T11:42:31;4.50;1.00
318;DHT22;146;53.448;10.228;2022-12-07T11:45:02;4.50;1.00
318;DHT22;146;53.448;10.228;2022-12-07T11:47:34;4.50;1.00
318;DHT22;146;53.448;10.228;2022-12-07T11:50:23;4.40;1.00
318;DHT22;146;53.448;10.228;2022-12-07T11:52:56;4.40;1.00
318;DHT22;146;53.448;10.228;2022-12-07T11:55:27;4.40;1.00
318;DHT22;146;53.448;10.228;2022-12-07T11:58:03;4.40;1.00
318;DHT22;146;53.448;10.228;2022-12-07T12:00:31;4.40;1.00
318;DHT22;146;53.448;10.228;2022-12-07T12:03:01;4.40;1.00
318;DHT22;146;53.448;10.228;2022-12-07T12:05:30;4.30;1.00
318;DHT22;146;53.448;10.228;2022-12-07T12:08:04;4.30;1.00
318;DHT22;146;53.448;10.228;2022-12-07T12:10:43;4.30;1.00
318;DHT22;146;53.448;10.228;2022-12-07T12:13:34;4.40;1.00
318;DHT22;146;53.448;10.228;2022-12-07T12:19:28;4.40;1.00
318;DHT22;146;53.448;10.228;2022-12-07T12:22:03;4.40;1.00
318;DHT22;146;53.448;10.228;2022-12-07T12:24:33;4.40;1.00
318;DHT22;146;53.448;10.228;2022-12-07T12:27:03;4.50;1.00
318;DHT22;146;53.448;10.228;2022-12-07T12:29:33;4.50;1.00
318;DHT22;146;53.448;10.228;2022-12-07T12:32:07;4.50;1.00
318;DHT22;146;53.448;10.228;2022-12-07T12:34:40;4.50;1.00
318;DHT22;146;53.448;10.228;2022-12-07T12:37:39;4.40;1.00
318;DHT22;146;53.448;10.228;2022-12-07T12:43:47;4.40;1.00
318;DHT22;146;53.448;10.228;2022-12-07T12:46:49;4.40;1.00
318;DHT22;146;53.448;10.228;2022-12-07T12:49:35;4.50;1.00
318;DHT22;146;53.448;10.228;2022-12-07T12:55:18;4.40;1.00
318;DHT22;146;53.448;10.228;2022-12-07T12:57:48;4.50;1.00
318;DHT22;146;53.448;10.228;2022-12-07T13:00:36;4.60;1.00
318;DHT22;146;53.448;10.228;2022-12-07T13:03:03;4.70;1.00
318;DHT22;146;53.448;10.228;2022-12-07T13:05:31;4.70;1.00
318;DHT22;146;53.448;10.228;2022-12-07T13:08:00;4.60;1.00
318;DHT22;146;53.448;10.228;2022-12-07T13:10:38;4.80;1.00
318;DHT22;146;53.448;10.228;2022-12-07T13:13:29;4.70;1.00
318;DHT22;146;53.448;10.228;2022-12-07T13:22:36;4.50;1.00
318;DHT22;146;53.448;10.228;2022-12-07T13:25:08;4.60;1.00
318;DHT22;146;53.448;10.228;2022-12-07T13:27:37;4.40;1.00
318;DHT22;146;53.448;10.228;2022-12-07T13:30:13;4.40;1.00
318;DHT22;146;53.448;10.228;2022-12-07T13:32:41;4.40;1.00
318;DHT22;146;53.448;10.228;2022-12-07T13:35:28;4.40;1.00
318;DHT22;146;53.448;10.228;2022-12-07T13:37:56;4.40;1.00
318;DHT22;146;53.448;10.228;2022-12-07T13:40:24;4.40;1.00
318;DHT22;146;53.448;10.228;2022-12-07T13:42:57;4.40;1.00
318;DHT22;146;53.448;10.228;2022-12-07T13:45:27;4.50;1.00
318;DHT22;146;53.448;10.228;2022-12-07T13:48:15;4.50;1.00
318;DHT22;146;53.448;10.228;2022-12-07T13:50:52;4.60;1.00
318;DHT22;146;53.448;10.228;2022-12-07T13:53:21;4.60;1.00
318;DHT22;146;53.448;10.228;2022-12-07T13:55:48;4.60;1.00
318;DHT22;146;53.448;10.228;2022-12-07T13:58:16;4.60;1.00
318;DHT22;146;53.448;10.228;2022-12-07T14:00:43;4.70;1.00
318;DHT22;146;53.448;10.228;2022-12-07T14:03:29;4.60;1.00
318;DHT22;146;53.448;10.228;2022-12-07T14:06:06;4.60;1.00
318;DHT22;146;53.448;10.228;2022-12-07T14:08:34;4.60;1.00
318;DHT22;146;53.448;10.228;2022-12-07T14:11:01;4.60;1.00
318;DHT22;146;53.448;10.228;2022-12-07T14:13:30;4.70;1.00
318;DHT22;146;53.448;10.228;2022-12-07T14:15:59;4.70;1.00
318;DHT22;146;53.448;10.228;2022-12-07T14:18:28;4.80;1.00
318;DHT22;146;53.448;10.228;2022-12-07T14:21:06;4.80;1.00
318;DHT22;146;53.448;10.228;2022-12-07T14:23:42;4.90;1.00
318;DHT22;146;53.448;10.228;2022-12-07T14:26:12;4.90;1.00
318;DHT22;146;53.448;10.228;2022-12-07T14:28:40;5.00;1.00
318;DHT22;146;53.448;10.228;2022-12-07T14:31:11;5.10;1.00
318;DHT22;146;53.448;10.228;2022-12-07T14:33:38;5.10;1.00
318;DHT22;146;53.448;10.228;2022-12-07T14:36:07;5.10;1.00
318;DHT22;146;53.448;10.228;2022-12-07T14:38:35;5.00;1.00
318;DHT22;146;53.448;10.228;2022-12-07T14:41:04;5.00;1.00
318;DHT22;146;53.448;10.228;2022-12-07T14:43:48;4.90;1.00
318;DHT22;146;53.448;10.228;2022-12-07T14:46:15;4.60;1.00
318;DHT22;146;53.448;10.228;2022-12-07T14:48:42;4.50;1.00
318;DHT22;146;53.448;10.228;2022-12-07T14:51:12;4.30;1.00
318;DHT22;146;53.448;10.228;2022-12-07T14:53:41;4.30;1.00
318;DHT22;146;53.448;10.228;2022-12-07T14:56:10;4.10;1.00
318;DHT22;146;53.448;10.228;2022-12-07T14:58:37;4.10;1.00
318;DHT22;146;53.448;10.228;2022-12-07T15:01:04;4.00;1.00
318;DHT22;146;53.448;10.228;2022-12-07T15:03:31;3.90;1.00
318;DHT22;146;53.448;10.228;2022-12-07T15:06:00;3.70;1.00
318;DHT22;146;53.448;10.228;2022-12-07T15:08:27;3.80;1.00
318;DHT22;146;53.448;10.228;2022-12-07T15:10:54;3.80;1.00
318;DHT22;146;53.448;10.228;2022-12-07T15:13:22;3.70;1.00
318;DHT22;146;53.448;10.228;2022-12-07T15:16:09;3.60;1.00
318;DHT22;146;53.448;10.228;2022-12-07T15:18:36;3.60;1.00
318;DHT22;146;53.448;10.228;2022-12-07T15:21:04;3.60;1.00
318;DHT22;146;53.448;10.228;2022-12-07T15:23:30;3.50;1.00
318;DHT22;146;53.448;10.228;2022-12-07T15:25:57;3.50;1.00
318;DHT22;146;53.448;10.228;2022-12-07T15:28:25;3.40;1.00
318;DHT22;146;53.448;10.228;2022-12-07T15:30:53;3.40;1.00
318;DHT22;146;53.448;10.228;2022-12-07T15:33:20;3.50;1.00
318;DHT22;146;53.448;10.228;2022-12-07T15:35:47;3.60;1.00
318;DHT22;146;53.448;10.228;2022-12-07T15:38:14;3.60;1.00
318;DHT22;146;53.448;10.228;2022-12-07T15:40:41;3.50;1.00
318;DHT22;146;53.448;10.228;2022-12-07T15:43:08;3.40;1.00
318;DHT22;146;53.448;10.228;2022-12-07T15:45:57;3.40;1.00
318;DHT22;146;53.448;10.228;2022-12-07T15:48:23;3.40;1.00
318;DHT22;146;53.448;10.228;2022-12-07T15:50:50;3.30;1.00
318;DHT22;146;53.448;10.228;2022-12-07T15:53:16;3.30;1.00
318;DHT22;146;53.448;10.228;2022-12-07T15:55:43;3.20;1.00
318;DHT22;146;53.448;10.228;2022-12-07T15:58:10;3.20;1.00
318;DHT22;146;53.448;10.228;2022-12-07T16:00:37;3.10;1.00
318;DHT22;146;53.448;10.228;2022-12-07T16:03:05;3.00;1.00
318;DHT22;146;53.448;10.228;2022-12-07T16:05:32;3.00;1.00
318;DHT22;146;53.448;10.228;2022-12-07T16:07:59;2.90;1.00
318;DHT22;146;53.448;10.228;2022-12-07T16:10:26;2.80;1.00
318;DHT22;146;53.448;10.228;2022-12-07T16:12:53;2.80;1.00
318;DHT22;146;53.448;10.228;2022-12-07T16:15:20;2.70;1.00
318;DHT22;146;53.448;10.228;2022-12-07T16:17:46;2.60;1.00
318;DHT22;146;53.448;10.228;2022-12-07T16:20:15;2.60;1.00
318;DHT22;146;53.448;10.228;2022-12-07T16:22:41;2.50;1.00
318;DHT22;146;53.448;10.228;2022-12-07T16:25:08;2.50;1.00
318;DHT22;146;53.448;10.228;2022-12-07T16:27:35;2.40;1.00
318;DHT22;146;53.448;10.228;2022-12-07T16:30:03;2.40;1.00
318;DHT22;146;53.448;10.228;2022-12-07T16:32:31;2.40;1.00
318;DHT22;146;53.448;10.228;2022-12-07T16:34:57;2.30;1.00
318;DHT22;146;53.448;10.228;2022-12-07T16:37:26;2.30;1.00
318;DHT22;146;53.448;10.228;2022-12-07T16:39:52;2.20;1.00
318;DHT22;146;53.448;10.228;2022-12-07T16:42:19;2.20;1.00
318;DHT22;146;53.448;10.228;2022-12-07T16:44:46;2.20;1.00
318;DHT22;146;53.448;10.228;2022-12-07T16:47:13;2.10;1.00
318;DHT22;146;53.448;10.228;2022-12-07T16:49:40;2.10;1.00
318;DHT22;146;53.448;10.228;2022-12-07T16:52:07;2.00;1.00
318;DHT22;146;53.448;10.228;2022-12-07T16:54:35;2.10;1.00
318;DHT22;146;53.448;10.228;2022-12-07T16:57:02;2.00;1.00
318;DHT22;146;53.448;10.228;2022-12-07T16:59:29;2.00;1.00
318;DHT22;146;53.448;10.228;2022-12-07T17:01:56;2.00;1.00
318;DHT22;146;53.448;10.228;2022-12-07T17:04:23;2.00;1.00
318;DHT22;146;53.448;10.228;2022-12-07T17:06:50;1.90;1.00
318;DHT22;146;53.448;10.228;2022-12-07T17:09:17;1.90;1.00
318;DHT22;146;53.448;10.228;2022-12-07T17:11:45;1.90;1.00
318;DHT22;146;53.448;10.228;2022-12-07T17:14:12;1.80;1.00
318;DHT22;146;53.448;10.228;2022-12-07T17:16:57;1.90;1.00
318;DHT22;146;53.448;10.228;2022-12-07T17:19:23;1.90;1.00
318;DHT22;146;53.448;10.228;2022-12-07T17:21:50;1.90;1.00
318;DHT22;146;53.448;10.228;2022-12-07T17:24:17;1.90;1.00
318;DHT22;146;53.448;10.228;2022-12-07T17:26:46;1.90;1.00
318;DHT22;146;53.448;10.228;2022-12-07T17:29:15;1.90;1.00
318;DHT22;146;53.448;10.228;2022-12-07T17:31:42;1.90;1.00
318;DHT22;146;53.448;10.228;2022-12-07T17:34:10;2.00;1.00
318;DHT22;146;53.448;10.228;2022-12-07T17:36:37;2.00;1.00
318;DHT22;146;53.448;10.228;2022-12-07T17:39:06;2.00;1.00